sensor_id;sensor_type;location;lat;lon;timestamp;P1;durP1;ratioP1;P2;durP2;ratioP2
41685;SDS011;27370;42.764;23.432;2022-09-13T00:00:39;12.55;;;9.98;;
41685;SDS011;27370;42.764;23.432;2022-09-13T00:03:06;11.95;;;9.20;;
41685;SDS011;27370;42.764;23.432;2022-09-13T00:05:32;11.93;;;9.73;;
41685;SDS011;27370;42.764;23.432;2022-09-13T00:07:59;14.82;;;9.57;;
41685;SDS011;27370;42.764;23.432;2022-09-13T00:10:25;13.05;;;10.40;;
41685;SDS011;27370;42.764;23.432;2022-09-13T00:12:51;13.95;;;10.70;;
41685;SDS011;27370;42.764;23.432;2022-09-13T00:15:17;14.65;;;10.63;;
41685;SDS011;27370;42.764;23.432;2022-09-13T00:17:44;13.15;;;10.40;;
41685;SDS011;27370;42.764;23.432;2022-09-13T00:20:09;13.95;;;10.60;;
41685;SDS011;27370;42.764;23.432;2022-09-13T00:22:35;13.02;;;10.35;;
41685;SDS011;27370;42.764;23.432;2022-09-13T00:25:02;12.80;;;10.18;;
41685;SDS011;27370;42.764;23.432;2022-09-13T00:27:28;12.25;;;9.75;;
41685;SDS011;27370;42.764;23.432;2022-09-13T00:29:54;12.93;;;10.23;;
41685;SDS011;27370;42.764;23.432;2022-09-13T00:32:19;14.38;;;10.50;;
41685;SDS011;27370;42.764;23.432;2022-09-13T00:34:45;14.75;;;10.02;;
41685;SDS011;27370;42.764;23.432;2022-09-13T00:37:10;13.35;;;10.00;;
41685;SDS011;27370;42.764;23.432;2022-09-13T00:39:36;13.45;;;9.85;;
41685;SDS011;27370;42.764;23.432;2022-09-13T00:42:01;12.98;;;10.50;;
41685;SDS011;27370;42.764;23.432;2022-09-13T00:49:52;13.48;;;10.25;;
41685;SDS011;27370;42.764;23.432;2022-09-13T00:52:23;13.73;;;10.05;;
41685;SDS011;27370;42.764;23.432;2022-09-13T00:54:53;13.30;;;10.52;;
41685;SDS011;27370;42.764;23.432;2022-09-13T00:57:23;12.70;;;9.65;;
41685;SDS011;27370;42.764;23.432;2022-09-13T01:00:12;13.45;;;9.90;;
41685;SDS011;27370;42.764;23.432;2022-09-13T01:02:43;13.55;;;10.65;;
41685;SDS011;27370;42.764;23.432;2022-09-13T01:05:14;14.88;;;10.32;;
41685;SDS011;27370;42.764;23.432;2022-09-13T01:07:41;13.07;;;10.43;;
41685;SDS011;27370;42.764;23.432;2022-09-13T01:10:06;13.07;;;10.50;;
41685;SDS011;27370;42.764;23.432;2022-09-13T01:15:35;12.23;;;9.70;;
41685;SDS011;27370;42.764;23.432;2022-09-13T01:18:01;14.55;;;10.82;;
41685;SDS011;27370;42.764;23.432;2022-09-13T01:20:30;13.60;;;10.30;;
41685;SDS011;27370;42.764;23.432;2022-09-13T01:31:10;12.85;;;9.20;;
41685;SDS011;27370;42.764;23.432;2022-09-13T01:37:28;12.02;;;9.70;;
41685;SDS011;27370;42.764;23.432;2022-09-13T01:48:10;13.15;;;8.73;;
41685;SDS011;27370;42.764;23.432;2022-09-13T01:51:00;11.45;;;8.90;;
41685;SDS011;27370;42.764;23.432;2022-09-13T01:56:04;14.67;;;10.47;;
41685;SDS011;27370;42.764;23.432;2022-09-13T01:58:43;13.30;;;10.55;;
41685;SDS011;27370;42.764;23.432;2022-09-13T02:01:17;14.75;;;10.55;;
41685;SDS011;27370;42.764;23.432;2022-09-13T02:03:57;14.23;;;10.60;;
41685;SDS011;27370;42.764;23.432;2022-09-13T02:06:39;12.85;;;9.95;;
41685;SDS011;27370;42.764;23.432;2022-09-13T02:09:20;12.40;;;10.07;;
41685;SDS011;27370;42.764;23.432;2022-09-13T02:11:50;14.65;;;10.52;;
41685;SDS011;27370;42.764;23.432;2022-09-13T02:14:30;12.30;;;9.98;;
41685;SDS011;27370;42.764;23.432;2022-09-13T02:17:01;12.27;;;9.38;;
41685;SDS011;27370;42.764;23.432;2022-09-13T02:19:38;11.32;;;9.23;;
41685;SDS011;27370;42.764;23.432;2022-09-13T02:22:08;11.93;;;9.18;;
41685;SDS011;27370;42.764;23.432;2022-09-13T02:24:38;12.50;;;9.10;;
41685;SDS011;27370;42.764;23.432;2022-09-13T02:27:10;11.50;;;9.17;;
41685;SDS011;27370;42.764;23.432;2022-09-13T02:29:41;12.30;;;9.82;;
41685;SDS011;27370;42.764;23.432;2022-09-13T02:32:31;13.07;;;9.30;;
41685;SDS011;27370;42.764;23.432;2022-09-13T02:35:03;13.57;;;8.98;;
41685;SDS011;27370;42.764;23.432;2022-09-13T02:37:33;13.05;;;9.73;;
41685;SDS011;27370;42.764;23.432;2022-09-13T02:45:00;13.52;;;10.32;;
41685;SDS011;27370;42.764;23.432;2022-09-13T02:47:32;12.43;;;9.30;;
41685;SDS011;27370;42.764;23.432;2022-09-13T02:53:13;12.23;;;9.88;;
41685;SDS011;27370;42.764;23.432;2022-09-13T02:56:51;15.20;;;11.05;;
41685;SDS011;27370;42.764;23.432;2022-09-13T02:59:13;16.55;;;9.30;;
41685;SDS011;27370;42.764;23.432;2022-09-13T03:01:41;12.18;;;9.00;;
41685;SDS011;27370;42.764;23.432;2022-09-13T03:04:20;12.77;;;9.90;;
41685;SDS011;27370;42.764;23.432;2022-09-13T03:06:47;12.65;;;9.32;;
41685;SDS011;27370;42.764;23.432;2022-09-13T03:09:13;12.43;;;9.70;;
41685;SDS011;27370;42.764;23.432;2022-09-13T03:14:49;12.90;;;8.73;;
41685;SDS011;27370;42.764;23.432;2022-09-13T03:28:39;14.88;;;10.05;;
41685;SDS011;27370;42.764;23.432;2022-09-13T03:31:34;18.60;;;12.13;;
41685;SDS011;27370;42.764;23.432;2022-09-13T03:34:06;18.25;;;10.93;;
41685;SDS011;27370;42.764;23.432;2022-09-13T03:40:24;15.13;;;10.35;;
41685;SDS011;27370;42.764;23.432;2022-09-13T03:45:15;13.68;;;9.93;;
41685;SDS011;27370;42.764;23.432;2022-09-13T03:47:47;13.50;;;9.85;;
41685;SDS011;27370;42.764;23.432;2022-09-13T03:50:21;12.18;;;9.60;;
41685;SDS011;27370;42.764;23.432;2022-09-13T03:52:53;11.63;;;8.27;;
41685;SDS011;27370;42.764;23.432;2022-09-13T03:55:24;10.85;;;6.85;;
41685;SDS011;27370;42.764;23.432;2022-09-13T03:57:50;10.43;;;6.68;;
41685;SDS011;27370;42.764;23.432;2022-09-13T04:00:15;8.98;;;5.90;;
41685;SDS011;27370;42.764;23.432;2022-09-13T04:02:42;11.35;;;7.75;;
41685;SDS011;27370;42.764;23.432;2022-09-13T04:05:11;12.73;;;7.45;;
41685;SDS011;27370;42.764;23.432;2022-09-13T04:07:36;11.82;;;6.75;;
41685;SDS011;27370;42.764;23.432;2022-09-13T04:10:02;12.38;;;7.32;;
41685;SDS011;27370;42.764;23.432;2022-09-13T04:12:27;20.40;;;9.48;;
41685;SDS011;27370;42.764;23.432;2022-09-13T04:14:55;13.05;;;7.88;;
41685;SDS011;27370;42.764;23.432;2022-09-13T04:17:21;18.05;;;9.20;;
41685;SDS011;27370;42.764;23.432;2022-09-13T04:19:46;21.63;;;10.43;;
41685;SDS011;27370;42.764;23.432;2022-09-13T04:22:12;19.23;;;10.15;;
41685;SDS011;27370;42.764;23.432;2022-09-13T04:24:38;22.38;;;12.30;;
41685;SDS011;27370;42.764;23.432;2022-09-13T04:27:04;19.75;;;8.15;;
41685;SDS011;27370;42.764;23.432;2022-09-13T04:29:30;16.92;;;8.95;;
41685;SDS011;27370;42.764;23.432;2022-09-13T04:31:57;15.77;;;7.65;;
41685;SDS011;27370;42.764;23.432;2022-09-13T04:34:23;17.80;;;8.45;;
41685;SDS011;27370;42.764;23.432;2022-09-13T04:36:49;12.55;;;6.38;;
41685;SDS011;27370;42.764;23.432;2022-09-13T04:39:16;9.90;;;6.00;;
41685;SDS011;27370;42.764;23.432;2022-09-13T04:41:43;11.23;;;6.28;;
41685;SDS011;27370;42.764;23.432;2022-09-13T04:44:16;12.07;;;6.45;;
41685;SDS011;27370;42.764;23.432;2022-09-13T04:46:42;10.52;;;6.40;;
41685;SDS011;27370;42.764;23.432;2022-09-13T04:49:10;12.27;;;6.57;;
41685;SDS011;27370;42.764;23.432;2022-09-13T04:51:35;11.18;;;6.40;;
41685;SDS011;27370;42.764;23.432;2022-09-13T04:54:01;10.40;;;6.07;;
41685;SDS011;27370;42.764;23.432;2022-09-13T04:56:26;9.73;;;5.93;;
41685;SDS011;27370;42.764;23.432;2022-09-13T04:58:53;9.18;;;5.75;;
41685;SDS011;27370;42.764;23.432;2022-09-13T05:01:20;11.23;;;6.70;;
41685;SDS011;27370;42.764;23.432;2022-09-13T05:03:46;11.45;;;6.80;;
41685;SDS011;27370;42.764;23.432;2022-09-13T05:06:13;10.00;;;7.03;;
41685;SDS011;27370;42.764;23.432;2022-09-13T05:08:43;10.00;;;6.60;;
41685;SDS011;27370;42.764;23.432;2022-09-13T05:11:13;8.85;;;5.78;;
41685;SDS011;27370;42.764;23.432;2022-09-13T05:13:39;9.77;;;6.18;;
41685;SDS011;27370;42.764;23.432;2022-09-13T05:16:05;11.20;;;6.75;;
41685;SDS011;27370;42.764;23.432;2022-09-13T05:18:32;13.05;;;7.50;;
41685;SDS011;27370;42.764;23.432;2022-09-13T05:21:01;15.38;;;8.20;;
41685;SDS011;27370;42.764;23.432;2022-09-13T05:23:29;15.90;;;8.80;;
41685;SDS011;27370;42.764;23.432;2022-09-13T05:25:59;13.30;;;8.43;;
41685;SDS011;27370;42.764;23.432;2022-09-13T05:28:27;13.23;;;8.20;;
41685;SDS011;27370;42.764;23.432;2022-09-13T05:30:59;11.25;;;7.97;;
41685;SDS011;27370;42.764;23.432;2022-09-13T05:33:28;11.07;;;7.15;;
41685;SDS011;27370;42.764;23.432;2022-09-13T05:35:57;12.30;;;7.50;;
41685;SDS011;27370;42.764;23.432;2022-09-13T05:38:22;11.02;;;7.32;;
41685;SDS011;27370;42.764;23.432;2022-09-13T05:40:55;12.85;;;8.15;;
41685;SDS011;27370;42.764;23.432;2022-09-13T05:43:25;13.20;;;8.15;;
41685;SDS011;27370;42.764;23.432;2022-09-13T05:45:59;13.43;;;8.50;;
41685;SDS011;27370;42.764;23.432;2022-09-13T05:48:35;12.00;;;7.65;;
41685;SDS011;27370;42.764;23.432;2022-09-13T05:51:05;11.07;;;6.45;;
41685;SDS011;27370;42.764;23.432;2022-09-13T05:53:38;9.52;;;6.03;;
41685;SDS011;27370;42.764;23.432;2022-09-13T05:56:06;10.05;;;6.22;;
41685;SDS011;27370;42.764;23.432;2022-09-13T05:58:39;11.85;;;5.70;;
41685;SDS011;27370;42.764;23.432;2022-09-13T06:01:06;9.27;;;5.47;;
41685;SDS011;27370;42.764;23.432;2022-09-13T06:03:32;8.90;;;5.38;;
41685;SDS011;27370;42.764;23.432;2022-09-13T06:05:58;8.88;;;4.82;;
41685;SDS011;27370;42.764;23.432;2022-09-13T06:08:24;9.32;;;5.07;;
41685;SDS011;27370;42.764;23.432;2022-09-13T06:10:53;8.40;;;5.20;;
41685;SDS011;27370;42.764;23.432;2022-09-13T06:13:20;8.90;;;5.55;;
41685;SDS011;27370;42.764;23.432;2022-09-13T06:15:46;14.30;;;6.00;;
41685;SDS011;27370;42.764;23.432;2022-09-13T06:18:11;8.18;;;5.22;;
41685;SDS011;27370;42.764;23.432;2022-09-13T06:20:37;8.02;;;5.07;;
41685;SDS011;27370;42.764;23.432;2022-09-13T06:23:02;9.68;;;5.40;;
41685;SDS011;27370;42.764;23.432;2022-09-13T06:25:28;10.05;;;5.28;;
41685;SDS011;27370;42.764;23.432;2022-09-13T06:27:53;10.13;;;5.40;;
41685;SDS011;27370;42.764;23.432;2022-09-13T06:30:19;8.77;;;5.13;;
41685;SDS011;27370;42.764;23.432;2022-09-13T06:32:44;10.32;;;5.35;;
41685;SDS011;27370;42.764;23.432;2022-09-13T06:35:09;11.57;;;4.30;;
41685;SDS011;27370;42.764;23.432;2022-09-13T06:37:35;8.93;;;4.75;;
41685;SDS011;27370;42.764;23.432;2022-09-13T06:40:01;8.27;;;4.72;;
41685;SDS011;27370;42.764;23.432;2022-09-13T06:42:28;8.70;;;4.35;;
41685;SDS011;27370;42.764;23.432;2022-09-13T06:44:56;8.93;;;4.40;;
41685;SDS011;27370;42.764;23.432;2022-09-13T06:47:21;8.82;;;4.50;;
41685;SDS011;27370;42.764;23.432;2022-09-13T06:49:47;8.73;;;4.93;;
41685;SDS011;27370;42.764;23.432;2022-09-13T06:52:12;8.70;;;4.50;;
41685;SDS011;27370;42.764;23.432;2022-09-13T06:54:38;8.15;;;4.38;;
41685;SDS011;27370;42.764;23.432;2022-09-13T06:57:03;8.60;;;4.25;;
41685;SDS011;27370;42.764;23.432;2022-09-13T06:59:29;9.45;;;4.43;;
41685;SDS011;27370;42.764;23.432;2022-09-13T07:01:54;7.57;;;4.25;;
41685;SDS011;27370;42.764;23.432;2022-09-13T07:04:21;7.20;;;4.10;;
41685;SDS011;27370;42.764;23.432;2022-09-13T07:06:47;8.07;;;4.47;;
41685;SDS011;27370;42.764;23.432;2022-09-13T07:09:15;7.15;;;4.03;;
41685;SDS011;27370;42.764;23.432;2022-09-13T07:11:42;9.88;;;4.07;;
41685;SDS011;27370;42.764;23.432;2022-09-13T07:14:16;7.30;;;3.85;;
41685;SDS011;27370;42.764;23.432;2022-09-13T07:16:43;7.47;;;3.80;;
41685;SDS011;27370;42.764;23.432;2022-09-13T07:21:50;8.68;;;3.78;;
41685;SDS011;27370;42.764;23.432;2022-09-13T07:24:17;6.45;;;3.15;;
41685;SDS011;27370;42.764;23.432;2022-09-13T07:26:43;8.73;;;3.40;;
41685;SDS011;27370;42.764;23.432;2022-09-13T07:29:12;8.82;;;3.47;;
41685;SDS011;27370;42.764;23.432;2022-09-13T07:31:44;6.10;;;3.30;;
41685;SDS011;27370;42.764;23.432;2022-09-13T07:34:15;9.82;;;3.55;;
41685;SDS011;27370;42.764;23.432;2022-09-13T07:36:42;7.75;;;2.80;;
41685;SDS011;27370;42.764;23.432;2022-09-13T07:39:09;6.35;;;2.95;;
41685;SDS011;27370;42.764;23.432;2022-09-13T07:41:34;6.07;;;3.00;;
41685;SDS011;27370;42.764;23.432;2022-09-13T07:44:01;4.75;;;2.50;;
41685;SDS011;27370;42.764;23.432;2022-09-13T07:46:29;6.78;;;2.75;;
41685;SDS011;27370;42.764;23.432;2022-09-13T07:49:00;7.68;;;3.20;;
41685;SDS011;27370;42.764;23.432;2022-09-13T07:51:27;6.38;;;2.78;;
41685;SDS011;27370;42.764;23.432;2022-09-13T07:53:58;6.15;;;3.17;;
41685;SDS011;27370;42.764;23.432;2022-09-13T07:56:26;6.97;;;2.50;;
41685;SDS011;27370;42.764;23.432;2022-09-13T07:58:54;4.20;;;2.40;;
41685;SDS011;27370;42.764;23.432;2022-09-13T08:01:20;5.60;;;2.80;;
41685;SDS011;27370;42.764;23.432;2022-09-13T08:03:51;6.57;;;2.35;;
41685;SDS011;27370;42.764;23.432;2022-09-13T08:06:17;6.35;;;2.80;;
41685;SDS011;27370;42.764;23.432;2022-09-13T08:08:42;4.97;;;2.47;;
41685;SDS011;27370;42.764;23.432;2022-09-13T08:11:09;4.70;;;2.17;;
41685;SDS011;27370;42.764;23.432;2022-09-13T08:13:40;3.38;;;2.22;;
41685;SDS011;27370;42.764;23.432;2022-09-13T08:16:06;5.22;;;2.55;;
41685;SDS011;27370;42.764;23.432;2022-09-13T08:18:31;3.40;;;2.20;;
41685;SDS011;27370;42.764;23.432;2022-09-13T08:20:58;5.10;;;2.10;;
41685;SDS011;27370;42.764;23.432;2022-09-13T08:23:24;4.78;;;2.00;;
41685;SDS011;27370;42.764;23.432;2022-09-13T08:25:50;2.70;;;1.63;;
41685;SDS011;27370;42.764;23.432;2022-09-13T08:28:17;20.10;;;2.28;;
41685;SDS011;27370;42.764;23.432;2022-09-13T08:30:45;3.03;;;1.70;;
41685;SDS011;27370;42.764;23.432;2022-09-13T08:33:12;4.35;;;1.92;;
41685;SDS011;27370;42.764;23.432;2022-09-13T08:35:37;3.78;;;1.95;;
41685;SDS011;27370;42.764;23.432;2022-09-13T08:38:06;3.80;;;1.80;;
41685;SDS011;27370;42.764;23.432;2022-09-13T08:40:39;4.07;;;2.00;;
41685;SDS011;27370;42.764;23.432;2022-09-13T08:45:39;4.07;;;2.00;;
41685;SDS011;27370;42.764;23.432;2022-09-13T08:48:12;3.80;;;1.90;;
41685;SDS011;27370;42.764;23.432;2022-09-13T08:50:40;3.97;;;1.90;;
41685;SDS011;27370;42.764;23.432;2022-09-13T08:53:21;2.78;;;1.70;;
41685;SDS011;27370;42.764;23.432;2022-09-13T09:06:47;1.95;;;1.58;;
41685;SDS011;27370;42.764;23.432;2022-09-13T09:09:17;2.47;;;1.25;;
41685;SDS011;27370;42.764;23.432;2022-09-13T09:11:53;4.88;;;1.65;;
41685;SDS011;27370;42.764;23.432;2022-09-13T09:14:29;4.25;;;1.85;;
41685;SDS011;27370;42.764;23.432;2022-09-13T09:17:07;2.55;;;1.42;;
41685;SDS011;27370;42.764;23.432;2022-09-13T09:19:53;2.17;;;1.60;;
41685;SDS011;27370;42.764;23.432;2022-09-13T09:22:27;2.15;;;1.50;;
41685;SDS011;27370;42.764;23.432;2022-09-13T09:24:57;3.30;;;1.80;;
41685;SDS011;27370;42.764;23.432;2022-09-13T09:27:22;3.03;;;1.90;;
41685;SDS011;27370;42.764;23.432;2022-09-13T09:29:49;2.97;;;1.80;;
41685;SDS011;27370;42.764;23.432;2022-09-13T09:40:43;3.63;;;1.90;;
41685;SDS011;27370;42.764;23.432;2022-09-13T09:43:11;2.33;;;1.50;;
41685;SDS011;27370;42.764;23.432;2022-09-13T09:45:48;3.33;;;1.50;;
41685;SDS011;27370;42.764;23.432;2022-09-13T09:50:47;2.33;;;1.50;;
41685;SDS011;27370;42.764;23.432;2022-09-13T09:58:48;2.50;;;1.38;;
41685;SDS011;27370;42.764;23.432;2022-09-13T10:01:21;5.28;;;1.65;;
41685;SDS011;27370;42.764;23.432;2022-09-13T10:03:51;2.28;;;1.65;;
41685;SDS011;27370;42.764;23.432;2022-09-13T10:06:25;2.22;;;1.50;;
41685;SDS011;27370;42.764;23.432;2022-09-13T10:11:51;3.50;;;1.58;;
41685;SDS011;27370;42.764;23.432;2022-09-13T10:14:34;3.38;;;1.60;;
41685;SDS011;27370;42.764;23.432;2022-09-13T10:19:53;1.92;;;1.48;;
41685;SDS011;27370;42.764;23.432;2022-09-13T10:22:24;2.20;;;1.60;;
41685;SDS011;27370;42.764;23.432;2022-09-13T10:24:50;1.65;;;1.52;;
41685;SDS011;27370;42.764;23.432;2022-09-13T10:29:58;3.00;;;1.50;;
41685;SDS011;27370;42.764;23.432;2022-09-13T10:32:27;1.75;;;1.60;;
41685;SDS011;27370;42.764;23.432;2022-09-13T10:34:54;2.33;;;1.60;;
41685;SDS011;27370;42.764;23.432;2022-09-13T10:37:27;2.83;;;1.52;;
41685;SDS011;27370;42.764;23.432;2022-09-13T10:42:32;2.88;;;1.50;;
41685;SDS011;27370;42.764;23.432;2022-09-13T10:45:05;2.33;;;1.73;;
41685;SDS011;27370;42.764;23.432;2022-09-13T10:47:45;2.58;;;1.60;;
41685;SDS011;27370;42.764;23.432;2022-09-13T10:50:21;3.10;;;1.70;;
41685;SDS011;27370;42.764;23.432;2022-09-13T10:52:59;2.88;;;1.60;;
41685;SDS011;27370;42.764;23.432;2022-09-13T11:00:38;2.83;;;1.65;;
41685;SDS011;27370;42.764;23.432;2022-09-13T11:04:01;2.47;;;1.65;;
41685;SDS011;27370;42.764;23.432;2022-09-13T11:06:40;4.40;;;1.90;;
41685;SDS011;27370;42.764;23.432;2022-09-13T11:12:23;6.30;;;1.90;;
41685;SDS011;27370;42.764;23.432;2022-09-13T11:19:48;4.00;;;1.88;;
41685;SDS011;27370;42.764;23.432;2022-09-13T11:22:29;3.70;;;1.88;;
41685;SDS011;27370;42.764;23.432;2022-09-13T11:30:29;2.90;;;1.80;;
41685;SDS011;27370;42.764;23.432;2022-09-13T11:33:16;2.40;;;1.80;;
41685;SDS011;27370;42.764;23.432;2022-09-13T11:35:52;2.40;;;1.70;;
41685;SDS011;27370;42.764;23.432;2022-09-13T11:49:33;3.05;;;2.10;;
41685;SDS011;27370;42.764;23.432;2022-09-13T11:57:23;2.85;;;1.70;;
41685;SDS011;27370;42.764;23.432;2022-09-13T11:59:58;1.88;;;1.40;;
41685;SDS011;27370;42.764;23.432;2022-09-13T12:02:43;3.40;;;1.80;;
41685;SDS011;27370;42.764;23.432;2022-09-13T12:05:13;4.18;;;1.80;;
41685;SDS011;27370;42.764;23.432;2022-09-13T12:08:19;3.38;;;1.52;;
41685;SDS011;27370;42.764;23.432;2022-09-13T12:13:20;3.17;;;1.60;;
41685;SDS011;27370;42.764;23.432;2022-09-13T12:15:53;2.40;;;1.70;;
41685;SDS011;27370;42.764;23.432;2022-09-13T12:20:54;2.92;;;1.60;;
41685;SDS011;27370;42.764;23.432;2022-09-13T12:26:18;3.83;;;1.90;;
41685;SDS011;27370;42.764;23.432;2022-09-13T12:28:52;3.03;;;1.70;;
41685;SDS011;27370;42.764;23.432;2022-09-13T12:31:22;2.10;;;1.60;;
41685;SDS011;27370;42.764;23.432;2022-09-13T12:33:53;3.45;;;1.60;;
41685;SDS011;27370;42.764;23.432;2022-09-13T12:59:35;2.47;;;1.90;;
41685;SDS011;27370;42.764;23.432;2022-09-13T13:02:21;3.05;;;1.60;;
41685;SDS011;27370;42.764;23.432;2022-09-13T13:04:57;2.65;;;1.70;;
41685;SDS011;27370;42.764;23.432;2022-09-13T13:07:27;1.63;;;1.40;;
41685;SDS011;27370;42.764;23.432;2022-09-13T13:14:59;2.20;;;1.60;;
41685;SDS011;27370;42.764;23.432;2022-09-13T13:33:48;2.42;;;1.90;;
41685;SDS011;27370;42.764;23.432;2022-09-13T13:36:24;3.22;;;1.50;;
41685;SDS011;27370;42.764;23.432;2022-09-13T13:38:56;3.00;;;1.40;;
41685;SDS011;27370;42.764;23.432;2022-09-13T13:43:57;2.40;;;1.50;;
41685;SDS011;27370;42.764;23.432;2022-09-13T13:46:24;4.68;;;1.92;;
41685;SDS011;27370;42.764;23.432;2022-09-13T13:48:52;5.63;;;2.00;;
41685;SDS011;27370;42.764;23.432;2022-09-13T13:51:22;5.25;;;2.20;;
41685;SDS011;27370;42.764;23.432;2022-09-13T13:53:57;5.13;;;2.30;;
41685;SDS011;27370;42.764;23.432;2022-09-13T13:56:33;3.65;;;1.70;;
41685;SDS011;27370;42.764;23.432;2022-09-13T13:59:02;5.43;;;2.10;;
41685;SDS011;27370;42.764;23.432;2022-09-13T14:01:50;6.20;;;2.00;;
41685;SDS011;27370;42.764;23.432;2022-09-13T14:09:59;2.92;;;2.00;;
41685;SDS011;27370;42.764;23.432;2022-09-13T14:20:23;6.32;;;3.40;;
41685;SDS011;27370;42.764;23.432;2022-09-13T14:22:49;4.85;;;2.20;;
41685;SDS011;27370;42.764;23.432;2022-09-13T14:27:43;2.05;;;1.80;;
41685;SDS011;27370;42.764;23.432;2022-09-13T14:30:21;3.42;;;1.90;;
41685;SDS011;27370;42.764;23.432;2022-09-13T14:32:52;9.52;;;5.50;;
41685;SDS011;27370;42.764;23.432;2022-09-13T14:35:22;7.07;;;3.92;;
41685;SDS011;27370;42.764;23.432;2022-09-13T14:37:49;4.55;;;2.00;;
41685;SDS011;27370;42.764;23.432;2022-09-13T14:40:16;2.75;;;1.80;;
41685;SDS011;27370;42.764;23.432;2022-09-13T14:42:48;4.88;;;2.97;;
41685;SDS011;27370;42.764;23.432;2022-09-13T14:45:17;4.00;;;1.98;;
41685;SDS011;27370;42.764;23.432;2022-09-13T14:48:04;2.45;;;1.80;;
41685;SDS011;27370;42.764;23.432;2022-09-13T14:50:33;3.15;;;1.90;;
41685;SDS011;27370;42.764;23.432;2022-09-13T14:53:06;4.90;;;2.10;;
41685;SDS011;27370;42.764;23.432;2022-09-13T14:55:39;5.03;;;2.10;;
41685;SDS011;27370;42.764;23.432;2022-09-13T14:58:25;2.35;;;1.70;;
41685;SDS011;27370;42.764;23.432;2022-09-13T15:01:03;2.97;;;2.10;;
41685;SDS011;27370;42.764;23.432;2022-09-13T15:03:33;6.80;;;2.50;;
41685;SDS011;27370;42.764;23.432;2022-09-13T15:06:00;2.28;;;1.90;;
41685;SDS011;27370;42.764;23.432;2022-09-13T15:11:00;2.42;;;1.80;;
41685;SDS011;27370;42.764;23.432;2022-09-13T15:13:27;3.42;;;1.98;;
41685;SDS011;27370;42.764;23.432;2022-09-13T15:15:53;2.55;;;1.80;;
41685;SDS011;27370;42.764;23.432;2022-09-13T15:23:21;3.25;;;1.65;;
41685;SDS011;27370;42.764;23.432;2022-09-13T15:25:54;5.72;;;2.17;;
41685;SDS011;27370;42.764;23.432;2022-09-13T15:28:26;3.10;;;2.05;;
41685;SDS011;27370;42.764;23.432;2022-09-13T15:33:22;3.67;;;2.08;;
41685;SDS011;27370;42.764;23.432;2022-09-13T15:35:55;2.78;;;2.08;;
41685;SDS011;27370;42.764;23.432;2022-09-13T15:41:31;3.78;;;2.10;;
41685;SDS011;27370;42.764;23.432;2022-09-13T15:43:59;3.13;;;2.03;;
41685;SDS011;27370;42.764;23.432;2022-09-13T15:46:26;3.60;;;1.90;;
41685;SDS011;27370;42.764;23.432;2022-09-13T15:48:53;2.97;;;1.80;;
41685;SDS011;27370;42.764;23.432;2022-09-13T15:51:21;5.18;;;2.00;;
41685;SDS011;27370;42.764;23.432;2022-09-13T15:53:47;4.13;;;2.10;;
41685;SDS011;27370;42.764;23.432;2022-09-13T15:56:14;4.15;;;2.30;;
41685;SDS011;27370;42.764;23.432;2022-09-13T16:01:08;3.28;;;1.77;;
41685;SDS011;27370;42.764;23.432;2022-09-13T16:03:36;3.55;;;2.10;;
41685;SDS011;27370;42.764;23.432;2022-09-13T16:06:04;3.03;;;1.83;;
41685;SDS011;27370;42.764;23.432;2022-09-13T16:08:33;2.90;;;2.05;;
41685;SDS011;27370;42.764;23.432;2022-09-13T16:10:58;3.33;;;1.90;;
41685;SDS011;27370;42.764;23.432;2022-09-13T16:13:23;4.30;;;1.92;;
41685;SDS011;27370;42.764;23.432;2022-09-13T16:15:49;10.18;;;2.22;;
41685;SDS011;27370;42.764;23.432;2022-09-13T16:18:14;6.97;;;2.25;;
41685;SDS011;27370;42.764;23.432;2022-09-13T16:20:41;11.70;;;2.30;;
41685;SDS011;27370;42.764;23.432;2022-09-13T16:23:10;10.10;;;2.30;;
41685;SDS011;27370;42.764;23.432;2022-09-13T16:25:36;12.10;;;2.40;;
41685;SDS011;27370;42.764;23.432;2022-09-13T16:28:03;9.70;;;2.55;;
41685;SDS011;27370;42.764;23.432;2022-09-13T16:30:29;7.90;;;2.45;;
41685;SDS011;27370;42.764;23.432;2022-09-13T16:32:56;4.75;;;2.35;;
41685;SDS011;27370;42.764;23.432;2022-09-13T16:35:21;5.68;;;2.65;;
41685;SDS011;27370;42.764;23.432;2022-09-13T16:37:50;9.63;;;2.40;;
41685;SDS011;27370;42.764;23.432;2022-09-13T16:40:17;17.40;;;2.80;;
41685;SDS011;27370;42.764;23.432;2022-09-13T16:42:43;27.17;;;3.75;;
41685;SDS011;27370;42.764;23.432;2022-09-13T16:45:09;26.58;;;3.80;;
41685;SDS011;27370;42.764;23.432;2022-09-13T16:47:37;28.48;;;3.20;;
41685;SDS011;27370;42.764;23.432;2022-09-13T16:50:03;46.53;;;5.43;;
41685;SDS011;27370;42.764;23.432;2022-09-13T16:52:30;26.38;;;3.92;;
41685;SDS011;27370;42.764;23.432;2022-09-13T16:54:57;22.05;;;3.45;;
41685;SDS011;27370;42.764;23.432;2022-09-13T16:57:23;15.55;;;3.00;;
41685;SDS011;27370;42.764;23.432;2022-09-13T16:59:49;24.75;;;3.42;;
41685;SDS011;27370;42.764;23.432;2022-09-13T17:02:17;20.27;;;3.72;;
41685;SDS011;27370;42.764;23.432;2022-09-13T17:04:43;18.52;;;3.40;;
41685;SDS011;27370;42.764;23.432;2022-09-13T17:07:10;18.13;;;3.25;;
41685;SDS011;27370;42.764;23.432;2022-09-13T17:09:36;20.95;;;3.47;;
41685;SDS011;27370;42.764;23.432;2022-09-13T17:12:02;10.32;;;3.13;;
41685;SDS011;27370;42.764;23.432;2022-09-13T17:14:28;16.40;;;3.30;;
41685;SDS011;27370;42.764;23.432;2022-09-13T17:16:54;22.25;;;3.70;;
41685;SDS011;27370;42.764;23.432;2022-09-13T17:19:31;17.38;;;3.72;;
41685;SDS011;27370;42.764;23.432;2022-09-13T17:22:01;18.48;;;3.47;;
41685;SDS011;27370;42.764;23.432;2022-09-13T17:24:28;10.02;;;3.33;;
41685;SDS011;27370;42.764;23.432;2022-09-13T17:26:55;11.18;;;3.35;;
41685;SDS011;27370;42.764;23.432;2022-09-13T17:29:22;6.63;;;3.20;;
41685;SDS011;27370;42.764;23.432;2022-09-13T17:31:50;9.93;;;3.15;;
41685;SDS011;27370;42.764;23.432;2022-09-13T17:34:15;18.33;;;4.38;;
41685;SDS011;27370;42.764;23.432;2022-09-13T17:36:41;7.40;;;3.38;;
41685;SDS011;27370;42.764;23.432;2022-09-13T17:39:07;7.95;;;3.40;;
41685;SDS011;27370;42.764;23.432;2022-09-13T17:41:34;6.57;;;3.25;;
41685;SDS011;27370;42.764;23.432;2022-09-13T17:44:00;6.03;;;3.15;;
41685;SDS011;27370;42.764;23.432;2022-09-13T17:46:27;9.35;;;3.50;;
41685;SDS011;27370;42.764;23.432;2022-09-13T17:48:54;6.45;;;3.30;;
41685;SDS011;27370;42.764;23.432;2022-09-13T17:51:25;6.82;;;3.70;;
41685;SDS011;27370;42.764;23.432;2022-09-13T17:53:53;5.85;;;3.13;;
41685;SDS011;27370;42.764;23.432;2022-09-13T17:56:23;6.35;;;3.30;;
41685;SDS011;27370;42.764;23.432;2022-09-13T17:58:54;7.28;;;3.50;;
41685;SDS011;27370;42.764;23.432;2022-09-13T18:01:20;5.70;;;3.30;;
41685;SDS011;27370;42.764;23.432;2022-09-13T18:03:45;8.68;;;3.75;;
41685;SDS011;27370;42.764;23.432;2022-09-13T18:06:11;6.70;;;3.33;;
41685;SDS011;27370;42.764;23.432;2022-09-13T18:08:40;8.07;;;3.53;;
41685;SDS011;27370;42.764;23.432;2022-09-13T18:11:07;7.35;;;3.60;;
41685;SDS011;27370;42.764;23.432;2022-09-13T18:13:37;8.40;;;3.78;;
41685;SDS011;27370;42.764;23.432;2022-09-13T18:16:05;6.68;;;3.95;;
41685;SDS011;27370;42.764;23.432;2022-09-13T18:18:35;7.93;;;3.83;;
41685;SDS011;27370;42.764;23.432;2022-09-13T18:23:27;7.25;;;3.72;;
41685;SDS011;27370;42.764;23.432;2022-09-13T18:28:22;7.13;;;4.22;;
41685;SDS011;27370;42.764;23.432;2022-09-13T18:30:55;6.32;;;3.95;;
41685;SDS011;27370;42.764;23.432;2022-09-13T18:33:22;7.95;;;4.20;;